createdAt,value
2023-02-11T00:01:43.589Z,99449.00
2023-02-11T00:04:10.829Z,99446.40
2023-02-11T00:06:38.210Z,99446.00
2023-02-11T00:09:06.709Z,99443.80
2023-02-11T00:11:34.870Z,99440.00
2023-02-11T00:14:05.936Z,99445.60
2023-02-11T00:16:33.651Z,99439.20
2023-02-11T00:19:08.686Z,99440.40
2023-02-11T00:21:39.322Z,99434.00
2023-02-11T00:24:09.731Z,99440.40
2023-02-11T00:26:45.643Z,99437.20
2023-02-11T00:29:13.365Z,99438.40
2023-02-11T00:31:41.379Z,99431.20
2023-02-11T00:34:12.321Z,99428.00
2023-02-11T00:36:49.661Z,99428.20
2023-02-11T00:39:22.778Z,99426.00
2023-02-11T00:41:54.995Z,99428.20
2023-02-11T00:44:22.806Z,99432.40
2023-02-11T00:46:53.100Z,99428.80
2023-02-11T00:49:25.369Z,99429.80
2023-02-11T00:51:59.481Z,99423.40
2023-02-11T00:54:32.276Z,99422.60
2023-02-11T00:57:02.794Z,99420.20
2023-02-11T00:59:35.777Z,99420.60
2023-02-11T01:02:18.062Z,99417.20
2023-02-11T01:04:49.022Z,99421.60
2023-02-11T01:07:34.094Z,99422.80
2023-02-11T01:10:04.365Z,99421.80
2023-02-11T01:12:36.479Z,99426.00
2023-02-11T01:15:30.616Z,99426.60
2023-02-11T01:18:04.472Z,99422.20
2023-02-11T01:20:34.918Z,99422.00
2023-02-11T01:23:02.308Z,99418.80
2023-02-11T01:25:32.538Z,99428.20
2023-02-11T01:28:02.817Z,99425.60
2023-02-11T01:30:35.173Z,99430.80
2023-02-11T01:33:07.245Z,99424.80
2023-02-11T01:35:37.051Z,99423.00
2023-02-11T01:38:07.094Z,99423.40
2023-02-11T01:40:39.644Z,99421.60
2023-02-11T01:43:15.495Z,99422.80
2023-02-11T01:45:47.950Z,99422.00
2023-02-11T01:48:27.202Z,99416.60
2023-02-11T01:51:09.250Z,99417.60
2023-02-11T01:54:00.719Z,99425.00
2023-02-11T01:56:56.490Z,99425.80
2023-02-11T01:59:57.712Z,99419.00
2023-02-11T02:02:44.259Z,99418.80
2023-02-11T02:05:20.664Z,99414.00
2023-02-11T02:08:21.963Z,99412.60
2023-02-11T02:10:56.581Z,99407.40
2023-02-11T02:13:25.508Z,99403.80
2023-02-11T02:16:05.203Z,99401.60
2023-02-11T02:18:49.033Z,99394.20
2023-02-11T02:21:56.909Z,99391.60
2023-02-11T02:25:01.251Z,99386.40
2023-02-11T02:28:12.662Z,99385.20
2023-02-11T02:31:12.063Z,99379.60
2023-02-11T02:34:19.210Z,99376.80
2023-02-11T02:37:28.647Z,99373.60
2023-02-11T02:40:02.237Z,99378.20
2023-02-11T02:42:31.245Z,99382.20
2023-02-11T02:45:01.893Z,99384.20
2023-02-11T02:47:32.609Z,99383.80
2023-02-11T02:50:00.364Z,99385.00
2023-02-11T02:53:05.694Z,99389.20
2023-02-11T02:56:23.555Z,99395.20
2023-02-11T02:59:47.229Z,99386.60
2023-02-11T03:02:57.687Z,99378.40
2023-02-11T03:05:49.894Z,99364.40
2023-02-11T03:08:40.502Z,99372.40
2023-02-11T03:11:15.758Z,99369.60
2023-02-11T03:13:45.275Z,99369.20
2023-02-11T03:16:23.238Z,99368.20
2023-02-11T03:18:56.677Z,99370.60
2023-02-11T03:21:28.939Z,99370.20
2023-02-11T03:24:10.853Z,99369.60
2023-02-11T03:26:51.747Z,99365.60
2023-02-11T03:29:41.492Z,99358.60
2023-02-11T03:32:25.131Z,99346.80
2023-02-11T03:35:41.737Z,99339.00
2023-02-11T03:38:21.807Z,99339.00
2023-02-11T03:40:54.431Z,99332.00
2023-02-11T03:43:49.063Z,99327.20
2023-02-11T03:46:23.992Z,99328.40
2023-02-11T03:49:03.128Z,99325.60
2023-02-11T03:51:36.646Z,99326.40
2023-02-11T03:54:23.533Z,99324.00
2023-02-11T03:57:03.179Z,99318.60
2023-02-11T03:59:30.842Z,99315.00
2023-02-11T04:01:59.685Z,99310.60
2023-02-11T04:04:31.690Z,99308.80
2023-02-11T04:07:03.952Z,99313.40
2023-02-11T04:09:36.330Z,99315.00
2023-02-11T04:12:04.182Z,99312.00
2023-02-11T04:14:37.903Z,99313.80
2023-02-11T04:17:08.748Z,99316.60
2023-02-11T04:19:39.591Z,99311.40
2023-02-11T04:22:10.754Z,99313.00
2023-02-11T04:24:40.968Z,99301.60
2023-02-11T04:27:13.927Z,99292.40
2023-02-11T04:29:46.714Z,99293.60
2023-02-11T04:32:20.083Z,99300.60
2023-02-11T04:34:52.580Z,99295.00
2023-02-11T04:37:28.530Z,99291.60
2023-02-11T04:39:59.265Z,99294.60
2023-02-11T04:42:28.878Z,99302.80
2023-02-11T04:45:05.657Z,99306.60
2023-02-11T04:47:38.431Z,99303.20
2023-02-11T04:50:06.711Z,99308.00
2023-02-11T04:52:34.052Z,99308.40
2023-02-11T04:55:01.771Z,99308.40
2023-02-11T04:57:28.944Z,99304.40
2023-02-11T04:59:56.486Z,99305.20
2023-02-11T05:02:26.343Z,99317.00
2023-02-11T05:04:59.718Z,99327.40
2023-02-11T05:07:32.361Z,99328.40
2023-02-11T05:09:59.786Z,99327.80
2023-02-11T05:12:36.770Z,99333.60
2023-02-11T05:15:07.309Z,99340.20
2023-02-11T05:17:40.881Z,99342.60
2023-02-11T05:20:09.552Z,99334.00
2023-02-11T05:22:37.028Z,99345.60
2023-02-11T05:25:08.253Z,99355.60
2023-02-11T05:27:36.325Z,99358.80
2023-02-11T05:30:07.106Z,99358.80
2023-02-11T05:32:34.740Z,99357.20
2023-02-11T05:35:06.011Z,99354.00
2023-02-11T05:37:39.618Z,99343.40
2023-02-11T05:40:10.535Z,99346.80
2023-02-11T05:42:41.134Z,99342.80
2023-02-11T05:45:12.079Z,99343.80
2023-02-11T05:47:39.440Z,99343.80
2023-02-11T05:50:07.152Z,99343.00
2023-02-11T05:52:36.921Z,99343.00
2023-02-11T05:55:25.483Z,99340.80
2023-02-11T05:57:55.112Z,99336.60
2023-02-11T06:00:25.379Z,99335.80
2023-02-11T06:02:52.769Z,99330.60
2023-02-11T06:05:23.206Z,99327.60
2023-02-11T06:07:50.753Z,99325.00
2023-02-11T06:10:21.071Z,99322.80
2023-02-11T06:12:50.880Z,99325.40
2023-02-11T06:15:21.446Z,99330.40
2023-02-11T06:17:48.963Z,99325.20
2023-02-11T06:20:20.030Z,99321.40
2023-02-11T06:22:47.490Z,99316.40
2023-02-11T06:25:15.144Z,99322.40
2023-02-11T06:27:42.534Z,99323.60
2023-02-11T06:30:11.215Z,99328.60
2023-02-11T06:32:44.846Z,99326.00
2023-02-11T06:35:14.867Z,99315.00
2023-02-11T06:37:47.994Z,99321.40
2023-02-11T06:40:17.687Z,99308.00
2023-02-11T06:42:45.073Z,99302.60
2023-02-11T06:45:13.544Z,99299.20
2023-02-11T06:47:50.287Z,99298.40
2023-02-11T06:50:21.028Z,99293.20
2023-02-11T06:52:48.374Z,99283.80
2023-02-11T06:55:15.940Z,99284.40
2023-02-11T06:57:45.789Z,99285.40
2023-02-11T07:00:14.563Z,99286.00
2023-02-11T07:02:44.263Z,99283.60
2023-02-11T07:05:12.118Z,99279.20
2023-02-11T07:07:39.775Z,99286.20
2023-02-11T07:10:09.679Z,99287.20
2023-02-11T07:12:37.652Z,99290.20
2023-02-11T07:15:11.139Z,99297.40
2023-02-11T07:17:41.273Z,99307.60
2023-02-11T07:20:12.444Z,99301.20
2023-02-11T07:22:42.738Z,99302.40
2023-02-11T07:25:10.500Z,99309.80
2023-02-11T07:27:40.727Z,99302.40
2023-02-11T07:30:09.346Z,99306.80
2023-02-11T07:32:40.094Z,99312.80
2023-02-11T07:35:08.042Z,99311.40
2023-02-11T07:37:36.320Z,99312.20
2023-02-11T07:40:04.670Z,99309.60
2023-02-11T07:42:32.252Z,99303.20
2023-02-11T07:44:59.611Z,99302.00
2023-02-11T07:47:34.300Z,99297.20
2023-02-11T07:50:01.964Z,99283.80
2023-02-11T07:52:32.285Z,99279.20
2023-02-11T07:54:59.866Z,99269.80
2023-02-11T07:57:30.182Z,99263.80
2023-02-11T08:00:04.874Z,99270.40
2023-02-11T08:02:42.820Z,99284.80
2023-02-11T08:05:13.734Z,99287.60
2023-02-11T08:07:41.318Z,99289.60
2023-02-11T08:10:09.062Z,99288.40
2023-02-11T08:12:38.495Z,99290.80
2023-02-11T08:15:06.598Z,99289.60
2023-02-11T08:17:40.098Z,99289.60
2023-02-11T08:20:17.518Z,99283.60
2023-02-11T08:22:59.312Z,99276.00
2023-02-11T08:25:45.711Z,99282.60
2023-02-11T08:28:25.586Z,99278.80
2023-02-11T08:31:01.583Z,99264.20
2023-02-11T08:33:46.888Z,99264.80
2023-02-11T08:36:34.349Z,99265.40
2023-02-11T08:39:35.356Z,99280.40
2023-02-11T08:42:19.516Z,99279.00
2023-02-11T08:44:52.603Z,99278.20
2023-02-11T08:47:20.110Z,99286.60
2023-02-11T08:50:03.996Z,99288.20
2023-02-11T08:52:45.111Z,99285.20
2023-02-11T08:55:17.443Z,99293.20
2023-02-11T08:57:51.533Z,99296.00
2023-02-11T09:00:32.527Z,99288.80
2023-02-11T09:03:03.131Z,99292.80
2023-02-11T09:06:28.175Z,99296.40
2023-02-11T09:09:13.708Z,99301.00
2023-02-11T09:11:57.412Z,99301.20
2023-02-11T09:14:38.696Z,99302.60
2023-02-11T09:17:09.674Z,99307.00
2023-02-11T09:19:48.728Z,99310.60
2023-02-11T09:22:37.078Z,99294.60
2023-02-11T09:25:16.824Z,99280.60
2023-02-11T09:27:44.791Z,99266.60
2023-02-11T09:30:15.734Z,99264.20
2023-02-11T09:32:56.093Z,99276.40
2023-02-11T09:35:23.410Z,99277.40
2023-02-11T09:37:51.109Z,99279.00
2023-02-11T09:40:20.292Z,99286.20
2023-02-11T09:43:02.344Z,99289.40
2023-02-11T09:45:34.218Z,99293.00
2023-02-11T09:48:22.673Z,99288.40
2023-02-11T09:51:00.608Z,99283.80
2023-02-11T09:53:41.266Z,99289.60
2023-02-11T09:56:15.404Z,99284.20
2023-02-11T09:58:44.824Z,99289.60
2023-02-11T10:01:21.855Z,99280.80
2023-02-11T10:04:19.193Z,99276.60
2023-02-11T10:06:55.343Z,99272.60
2023-02-11T10:09:57.486Z,99275.40
2023-02-11T10:13:21.798Z,99278.80
2023-02-11T10:16:18.127Z,99271.20
2023-02-11T10:18:57.015Z,99261.60
2023-02-11T10:21:46.650Z,99255.00
2023-02-11T10:24:17.837Z,99258.40
2023-02-11T10:26:46.107Z,99263.80
2023-02-11T10:29:42.247Z,99254.80
2023-02-11T10:32:35.778Z,99259.80
2023-02-11T10:35:19.095Z,99261.20
2023-02-11T10:37:49.683Z,99271.40
2023-02-11T10:40:29.489Z,99273.60
2023-02-11T10:43:04.350Z,99270.60
2023-02-11T10:45:46.576Z,99263.80
2023-02-11T10:48:41.750Z,99260.20
2023-02-11T10:51:34.211Z,99256.40
2023-02-11T10:54:04.430Z,99246.00
2023-02-11T10:56:37.515Z,99242.80
2023-02-11T10:59:43.482Z,99246.60
2023-02-11T11:02:38.943Z,99237.20
2023-02-11T11:05:21.086Z,99232.40
2023-02-11T11:08:15.732Z,99228.20
2023-02-11T11:11:06.688Z,99229.00
2023-02-11T11:13:54.418Z,99230.40
2023-02-11T11:16:37.390Z,99229.60
2023-02-11T11:19:10.425Z,99229.80
2023-02-11T11:21:51.288Z,99224.00
2023-02-11T11:24:43.030Z,99221.20
2023-02-11T11:27:22.183Z,99214.00
2023-02-11T11:29:58.342Z,99203.40
2023-02-11T11:32:33.341Z,99204.80
2023-02-11T11:35:06.071Z,99209.00
2023-02-11T11:37:42.385Z,99204.80
2023-02-11T11:40:16.121Z,99202.60
2023-02-11T11:42:44.554Z,99202.40
2023-02-11T11:45:23.072Z,99202.00
2023-02-11T11:48:37.296Z,99199.80
2023-02-11T11:51:23.958Z,99192.00
2023-02-11T11:54:04.898Z,99199.60
2023-02-11T11:56:45.264Z,99187.80
2023-02-11T11:59:18.996Z,99184.40
2023-02-11T12:02:32.118Z,99183.00
2023-02-11T12:05:24.549Z,99173.00
2023-02-11T12:07:59.679Z,99167.20
2023-02-11T12:10:34.086Z,99157.00
2023-02-11T12:13:53.267Z,99155.60
2023-02-11T12:17:11.732Z,99139.80
2023-02-11T12:20:34.788Z,99134.00
2023-02-11T12:24:05.110Z,99128.40
2023-02-11T12:26:45.272Z,99117.00
2023-02-11T12:30:22.469Z,99107.80
2023-02-11T12:33:40.160Z,99102.00
2023-02-11T12:36:46.570Z,99102.60
2023-02-11T12:39:58.255Z,99100.00
2023-02-11T12:43:09.126Z,99097.80
2023-02-11T12:46:11.849Z,99090.40
2023-02-11T12:49:08.217Z,99083.20
2023-02-11T12:52:11.956Z,99071.60
2023-02-11T12:54:59.823Z,99071.00
2023-02-11T12:57:37.649Z,99075.80
2023-02-11T13:00:28.094Z,99072.20
2023-02-11T13:03:19.502Z,99077.60
2023-02-11T13:06:21.688Z,99080.40
2023-02-11T13:09:41.151Z,99082.80
2023-02-11T13:12:35.954Z,99095.20
2023-02-11T13:15:26.771Z,99092.20
2023-02-11T13:18:40.597Z,99085.80
2023-02-11T13:21:33.713Z,99087.40
2023-02-11T13:24:32.962Z,99082.20
2023-02-11T13:27:18.763Z,99090.20
2023-02-11T13:30:27.294Z,99106.60
2023-02-11T13:33:03.547Z,99115.20
2023-02-11T13:35:43.905Z,99119.40
2023-02-11T13:38:33.289Z,99130.80
2023-02-11T13:41:21.301Z,99122.40
2023-02-11T13:44:25.345Z,99120.60
2023-02-11T13:47:23.078Z,99103.60
2023-02-11T13:50:11.093Z,99102.80
2023-02-11T13:52:58.986Z,99122.40
2023-02-11T13:55:28.108Z,99122.40
2023-02-11T13:58:10.960Z,99122.60
2023-02-11T14:00:49.111Z,99113.60
2023-02-11T14:03:49.874Z,99112.00
2023-02-11T14:06:46.761Z,99118.80
2023-02-11T14:09:23.527Z,99126.00
2023-02-11T14:12:33.662Z,99121.20
2023-02-11T14:15:27.969Z,99117.00
2023-02-11T14:17:55.130Z,99119.60
2023-02-11T14:21:27.568Z,99114.80
2023-02-11T14:24:13.211Z,99122.00
2023-02-11T14:26:59.595Z,99118.00
2023-02-11T14:30:11.860Z,99121.00
2023-02-11T14:33:26.777Z,99126.80
2023-02-11T14:36:21.153Z,99124.20
2023-02-11T14:39:10.016Z,99123.20
2023-02-11T14:41:44.359Z,99119.40
2023-02-11T14:44:30.378Z,99114.60
2023-02-11T14:46:59.632Z,99103.40
2023-02-11T14:49:40.890Z,99104.40
2023-02-11T14:52:23.608Z,99101.20
2023-02-11T14:54:57.198Z,99103.40
2023-02-11T14:57:30.916Z,99110.60
2023-02-11T15:00:06.287Z,99101.60
2023-02-11T15:02:50.424Z,99103.80
2023-02-11T15:05:32.408Z,99097.80
2023-02-11T15:08:09.972Z,99097.40
2023-02-11T15:10:45.387Z,99098.20
2023-02-11T15:13:27.302Z,99100.20
2023-02-11T15:16:29.575Z,99102.80
2023-02-11T15:19:17.443Z,99103.60
2023-02-11T15:21:50.855Z,99097.00
2023-02-11T15:24:39.402Z,99097.20
2023-02-11T15:27:18.730Z,99095.60
2023-02-11T15:29:55.254Z,99092.80
2023-02-11T15:32:29.097Z,99096.20
2023-02-11T15:35:02.510Z,99090.40
2023-02-11T15:37:33.100Z,99079.40
2023-02-11T15:40:32.544Z,99079.00
2023-02-11T15:43:10.110Z,99086.00
2023-02-11T15:46:06.262Z,99093.40
2023-02-11T15:48:43.796Z,99085.80
2023-02-11T15:51:29.483Z,99077.40
2023-02-11T15:54:30.069Z,99078.60
2023-02-11T15:57:11.018Z,99083.80
2023-02-11T16:00:04.619Z,99076.00
2023-02-11T16:02:45.782Z,99076.80
2023-02-11T16:05:35.163Z,99082.00
2023-02-11T16:08:32.846Z,99097.60
2023-02-11T16:11:08.973Z,99107.20
2023-02-11T16:13:50.113Z,99105.00
2023-02-11T16:16:31.768Z,99096.20
2023-02-11T16:19:06.234Z,99091.60
2023-02-11T16:21:54.992Z,99092.00
2023-02-11T16:24:28.255Z,99096.20
2023-02-11T16:27:07.006Z,99095.60
2023-02-11T16:29:47.991Z,99094.60
2023-02-11T16:32:26.665Z,99107.40
2023-02-11T16:34:58.090Z,99115.00
2023-02-11T16:37:37.212Z,99110.80
2023-02-11T16:40:09.995Z,99108.80
2023-02-11T16:42:40.114Z,99103.40
2023-02-11T16:45:09.024Z,99105.00
2023-02-11T16:47:48.413Z,99111.60
2023-02-11T16:50:25.639Z,99114.60
2023-02-11T16:52:55.953Z,99117.60
2023-02-11T16:55:26.160Z,99113.00
2023-02-11T16:57:59.081Z,99119.80
2023-02-11T17:00:38.861Z,99121.80
2023-02-11T17:03:23.259Z,99119.80
2023-02-11T17:05:55.992Z,99117.40
2023-02-11T17:08:26.958Z,99130.00
2023-02-11T17:10:57.521Z,99136.00
2023-02-11T17:13:34.275Z,99137.20
2023-02-11T17:16:30.294Z,99132.60
2023-02-11T17:19:02.469Z,99125.40
2023-02-11T17:21:33.930Z,99117.00
2023-02-11T17:24:08.253Z,99115.60
2023-02-11T17:26:43.834Z,99117.40
2023-02-11T17:29:21.959Z,99119.40
2023-02-11T17:31:53.372Z,99114.60
2023-02-11T17:34:24.607Z,99120.00
2023-02-11T17:37:00.330Z,99123.00
2023-02-11T17:39:42.854Z,99136.40
2023-02-11T17:42:12.060Z,99150.40
2023-02-11T17:44:47.815Z,99150.40
2023-02-11T17:47:20.858Z,99158.00
2023-02-11T17:49:55.836Z,99158.00
2023-02-11T17:52:24.544Z,99166.20
2023-02-11T17:54:51.978Z,99168.40
2023-02-11T17:57:19.412Z,99175.60
2023-02-11T17:59:49.026Z,99180.00
2023-02-11T18:02:16.846Z,99179.40
2023-02-11T18:04:44.249Z,99181.20
2023-02-11T18:07:14.768Z,99180.00
2023-02-11T18:09:42.647Z,99169.60
2023-02-11T18:12:11.324Z,99163.60
2023-02-11T18:14:46.870Z,99163.60
2023-02-11T18:17:14.404Z,99166.00
2023-02-11T18:19:43.113Z,99166.60
2023-02-11T18:22:15.157Z,99162.60
2023-02-11T18:24:45.191Z,99168.40
2023-02-11T18:27:13.478Z,99168.20
2023-02-11T18:29:44.100Z,99167.40
2023-02-11T18:32:17.113Z,99161.60
2023-02-11T18:34:56.526Z,99172.20
2023-02-11T18:37:26.307Z,99172.80
2023-02-11T18:39:58.919Z,99176.60
2023-02-11T18:42:48.592Z,99182.00
2023-02-11T18:45:24.250Z,99189.40
2023-02-11T18:47:54.014Z,99189.60
2023-02-11T18:50:22.296Z,99187.20
2023-02-11T18:52:50.096Z,99186.60
2023-02-11T18:55:23.729Z,99187.80
2023-02-11T18:57:53.190Z,99185.20
2023-02-11T19:00:23.937Z,99194.40
2023-02-11T19:02:53.287Z,99194.80
2023-02-11T19:05:21.820Z,99201.60
2023-02-11T19:07:49.029Z,99207.60
2023-02-11T19:10:16.324Z,99208.60
2023-02-11T19:12:43.832Z,99208.00
2023-02-11T19:15:11.244Z,99217.20
2023-02-11T19:17:38.691Z,99217.60
2023-02-11T19:20:08.020Z,99213.60
2023-02-11T19:22:38.620Z,99210.60
2023-02-11T19:25:24.714Z,99214.60
2023-02-11T19:28:04.356Z,99206.00
2023-02-11T19:30:42.144Z,99217.40
2023-02-11T19:33:17.702Z,99215.40
2023-02-11T19:35:50.120Z,99210.00
2023-02-11T19:38:20.395Z,99216.00
2023-02-11T19:41:08.333Z,99214.20
2023-02-11T19:43:44.726Z,99219.60
2023-02-11T19:46:32.356Z,99220.00
2023-02-11T19:49:09.939Z,99223.00
2023-02-11T19:51:45.837Z,99222.60
2023-02-11T19:54:16.289Z,99225.40
2023-02-11T19:57:01.590Z,99218.60
2023-02-11T19:59:44.377Z,99215.40
2023-02-11T20:02:18.870Z,99216.40
2023-02-11T20:04:57.862Z,99220.40
2023-02-11T20:07:30.933Z,99215.20
2023-02-11T20:10:12.849Z,99215.00
2023-02-11T20:12:54.827Z,99217.60
2023-02-11T20:15:30.498Z,99213.80
2023-02-11T20:18:12.493Z,99214.80
2023-02-11T20:21:05.067Z,99212.40
2023-02-11T20:23:36.669Z,99214.40
2023-02-11T20:26:12.356Z,99216.80
2023-02-11T20:28:45.338Z,99222.20
2023-02-11T20:31:24.461Z,99218.60
2023-02-11T20:34:03.545Z,99209.60
2023-02-11T20:37:02.176Z,99198.20
2023-02-11T20:40:01.323Z,99202.00
2023-02-11T20:42:53.386Z,99205.80
2023-02-11T20:45:29.168Z,99200.40
2023-02-11T20:48:04.944Z,99201.00
2023-02-11T20:50:39.029Z,99196.60
2023-02-11T20:53:34.317Z,99193.00
2023-02-11T20:56:12.054Z,99193.80
2023-02-11T20:58:54.014Z,99192.40
2023-02-11T21:01:56.750Z,99197.00
2023-02-11T21:04:33.860Z,99195.80
2023-02-11T21:07:15.761Z,99201.40
2023-02-11T21:09:56.453Z,99211.40
2023-02-11T21:12:26.928Z,99211.80
2023-02-11T21:15:16.239Z,99214.80
2023-02-11T21:18:13.415Z,99217.60
2023-02-11T21:20:54.805Z,99218.80
2023-02-11T21:23:30.854Z,99215.00
2023-02-11T21:26:07.137Z,99220.00
2023-02-11T21:29:14.047Z,99224.00
2023-02-11T21:32:02.302Z,99229.20
2023-02-11T21:34:57.244Z,99228.20
2023-02-11T21:37:49.842Z,99238.40
2023-02-11T21:40:29.055Z,99237.00
2023-02-11T21:43:06.287Z,99237.60
2023-02-11T21:45:51.389Z,99227.40
2023-02-11T21:48:23.834Z,99224.00
2023-02-11T21:51:04.522Z,99221.00
2023-02-11T21:53:42.968Z,99221.00
2023-02-11T21:56:18.646Z,99221.20
2023-02-11T21:58:54.116Z,99228.00
2023-02-11T22:01:37.027Z,99232.80
2023-02-11T22:04:07.714Z,99237.80
2023-02-11T22:06:38.882Z,99236.40
2023-02-11T22:09:15.674Z,99237.80
2023-02-11T22:11:45.999Z,99247.60
2023-02-11T22:14:19.598Z,99254.40
2023-02-11T22:16:49.755Z,99254.00
2023-02-11T22:19:25.979Z,99250.00
2023-02-11T22:21:59.187Z,99259.60
2023-02-11T22:24:40.351Z,99257.60
2023-02-11T22:27:13.541Z,99250.20
2023-02-11T22:29:49.907Z,99243.40
2023-02-11T22:32:27.493Z,99242.20
2023-02-11T22:35:03.761Z,99242.60
2023-02-11T22:37:43.501Z,99245.80
2023-02-11T22:40:14.567Z,99246.40
2023-02-11T22:42:52.530Z,99239.20
2023-02-11T22:45:32.495Z,99240.40
2023-02-11T22:48:08.637Z,99231.20
2023-02-11T22:50:44.102Z,99242.00
2023-02-11T22:53:25.660Z,99233.60
2023-02-11T22:56:16.348Z,99234.40
2023-02-11T22:58:55.050Z,99239.80
2023-02-11T23:01:33.239Z,99239.60
2023-02-11T23:04:22.087Z,99237.80
2023-02-11T23:06:54.442Z,99246.40
2023-02-11T23:09:21.954Z,99248.20
2023-02-11T23:12:03.459Z,99247.60
2023-02-11T23:14:36.285Z,99257.80
2023-02-11T23:17:06.603Z,99259.40
2023-02-11T23:19:33.951Z,99257.60
2023-02-11T23:22:06.729Z,99257.20
2023-02-11T23:24:36.848Z,99252.40
2023-02-11T23:27:04.715Z,99256.60
2023-02-11T23:29:37.413Z,99262.80
2023-02-11T23:32:19.982Z,99266.40
2023-02-11T23:34:54.654Z,99274.20
2023-02-11T23:37:31.735Z,99267.80
2023-02-11T23:39:59.093Z,99264.20
2023-02-11T23:42:26.936Z,99254.60
2023-02-11T23:45:05.580Z,99255.80
2023-02-11T23:47:58.409Z,99261.80
2023-02-11T23:50:29.054Z,99261.80
2023-02-11T23:53:06.594Z,99261.40
2023-02-11T23:55:46.224Z,99269.80
2023-02-11T23:58:19.338Z,99266.80
